Hillingdon, United Kingdom
Current Conditions -  °F | °C
As of 4:50 PM on Sunday 23 Nov 2014 (Local Time) from EGWU Reporting Station
Broken Clouds Broken Clouds  
Wind Chill: 45°   Ceiling: 3500
Heat Index: 45°   Visibility: 6mi
Dew Point: 43°   Wind: 2mph
Humidity: 93%   Direction: 310°NW
Pressure: 30.06"   Gusts: NA
Location:  51.53°N, 0.45°W
Report Text: EGWU 231650Z 31002KT 9999 FEW012 SCT023 BKN035 07/06 Q1018 BECMG FEW020 BKN070
Loading
Personal Weather Stations






























Interactive Weather Map New forecast layout! Learn more

10-Day Weather Forecast

Advertisements
Track Severe Weather on mobile